RYR76CT GCFV-EDDK
Flight info
| Callsign | RYR76CT |
|---|---|
| Flight time | N/A |
| Altitude | 36000 |
| Route | TUVIL DCT VASTO UN858 AKUDA DCT ELVAR/N0438F380 DCT BARDI N873 DELOG DCT TIRAV DCT ERJAZ DCT PIWIZ DCT TSU UN858 OQQAL DCT RANUX/N0433F390 DCT VALEK DCT LUTAX UM163 DIK N853 ARCKY T853 IBESA DCT NVO DCT DK435 DCT LEGDU |
| Aircraft | B738/M-SDE3FGILRWY/SB1 |
Departure
| Time | N/A |
|---|---|
| Airport | Fuerteventura Airport (GCFV) |
Arrival
| Time | 2026-04-25 00:34 |
|---|---|
| Airport | Cologne Bonn Airport (EDDK) |
| Time | Latitude | Longitude | Altitude | Speed | Heading |
|---|---|---|---|---|---|
| 2026-04-24 21:47 | 37.03732 | -8.39969 | 37001 ft | 445 kts | 22° |
| 2026-04-24 21:48 | 37.09434 | -8.36989 | 37001 ft | 444 kts | 22° |
| 2026-04-24 21:48 | 37.15139 | -8.34003 | 37001 ft | 444 kts | 22° |
| 2026-04-24 21:49 | 37.20847 | -8.31009 | 37000 ft | 444 kts | 22° |
| 2026-04-24 21:49 | 37.26543 | -8.28018 | 37097 ft | 448 kts | 22° |
| 2026-04-24 21:49 | 37.29401 | -8.26515 | 37316 ft | 446 kts | 22° |
| 2026-04-24 21:50 | 37.32256 | -8.25013 | 37566 ft | 445 kts | 22° |
| 2026-04-24 21:50 | 37.35146 | -8.23490 | 37725 ft | 445 kts | 22° |
| 2026-04-24 21:50 | 37.37955 | -8.22010 | 37819 ft | 447 kts | 22° |
| 2026-04-24 21:50 | 37.40832 | -8.20492 | 37942 ft | 444 kts | 22° |
| 2026-04-24 21:51 | 37.43685 | -8.18986 | 37995 ft | 445 kts | 22° |
| 2026-04-24 21:51 | 37.49421 | -8.15953 | 38010 ft | 448 kts | 22° |
| 2026-04-24 21:52 | 37.55175 | -8.12907 | 38005 ft | 449 kts | 22° |
| 2026-04-24 21:52 | 37.60942 | -8.09847 | 38003 ft | 450 kts | 22° |
| 2026-04-24 21:53 | 37.66721 | -8.06777 | 38001 ft | 450 kts | 22° |
| 2026-04-24 21:53 | 37.72494 | -8.03705 | 37999 ft | 450 kts | 22° |
| 2026-04-24 21:54 | 37.78250 | -8.00635 | 38000 ft | 449 kts | 22° |
| 2026-04-24 21:54 | 37.83996 | -7.97567 | 38000 ft | 447 kts | 22° |
| 2026-04-24 21:55 | 37.89726 | -7.94502 | 37999 ft | 446 kts | 22° |
| 2026-04-24 21:55 | 37.95434 | -7.91447 | 37999 ft | 445 kts | 22° |
| 2026-04-24 21:56 | 38.01126 | -7.88400 | 38000 ft | 444 kts | 22° |
| 2026-04-24 21:56 | 38.06804 | -7.85349 | 38002 ft | 443 kts | 22° |
| 2026-04-24 21:57 | 38.12471 | -7.82292 | 38002 ft | 442 kts | 22° |
| 2026-04-24 21:57 | 38.18138 | -7.79229 | 38001 ft | 442 kts | 22° |
| 2026-04-24 21:58 | 38.23758 | -7.76192 | 38002 ft | 443 kts | 22° |
| 2026-04-24 21:58 | 38.29486 | -7.73102 | 38005 ft | 444 kts | 22° |
| 2026-04-24 21:59 | 38.35157 | -7.70022 | 38002 ft | 445 kts | 22° |
| 2026-04-24 21:59 | 38.40826 | -7.66938 | 38006 ft | 446 kts | 22° |
| 2026-04-24 22:00 | 38.46537 | -7.63828 | 38001 ft | 447 kts | 22° |
| 2026-04-24 22:00 | 38.52262 | -7.60707 | 38003 ft | 448 kts | 22° |
| 2026-04-24 22:01 | 38.57988 | -7.57581 | 38001 ft | 448 kts | 22° |
| 2026-04-24 22:01 | 38.63726 | -7.54447 | 38001 ft | 448 kts | 22° |
| 2026-04-24 22:02 | 38.69462 | -7.51301 | 38002 ft | 449 kts | 23° |
| 2026-04-24 22:02 | 38.75199 | -7.48157 | 38000 ft | 448 kts | 23° |
| 2026-04-24 22:03 | 38.80933 | -7.45006 | 37999 ft | 448 kts | 22° |
| 2026-04-24 22:03 | 38.86659 | -7.41852 | 38002 ft | 448 kts | 22° |
| 2026-04-24 22:04 | 38.92382 | -7.38693 | 38001 ft | 447 kts | 22° |
| 2026-04-24 22:04 | 38.98062 | -7.35553 | 38000 ft | 447 kts | 22° |
| 2026-04-24 22:05 | 39.03772 | -7.32389 | 38001 ft | 447 kts | 23° |
| 2026-04-24 22:05 | 39.09470 | -7.29227 | 38000 ft | 446 kts | 23° |
| 2026-04-24 22:06 | 39.15166 | -7.26058 | 38002 ft | 446 kts | 23° |
| 2026-04-24 22:06 | 39.20855 | -7.22891 | 37998 ft | 446 kts | 22° |
| 2026-04-24 22:07 | 39.26454 | -7.19437 | 38008 ft | 445 kts | 26° |
| 2026-04-24 22:07 | 39.31959 | -7.15753 | 38003 ft | 446 kts | 27° |
| 2026-04-24 22:08 | 39.37455 | -7.12060 | 37999 ft | 446 kts | 27° |
| 2026-04-24 22:08 | 39.42980 | -7.08374 | 38002 ft | 446 kts | 26° |
| 2026-04-24 22:09 | 39.48506 | -7.04697 | 38006 ft | 447 kts | 26° |
| 2026-04-24 22:09 | 39.54036 | -7.01015 | 38001 ft | 447 kts | 26° |
| 2026-04-24 22:10 | 39.59573 | -6.97322 | 38002 ft | 447 kts | 26° |
| 2026-04-24 22:10 | 39.65104 | -6.93626 | 38001 ft | 448 kts | 27° |
| 2026-04-24 22:11 | 39.70645 | -6.89914 | 38001 ft | 448 kts | 27° |
| 2026-04-24 22:11 | 39.76178 | -6.86202 | 38001 ft | 448 kts | 27° |
| 2026-04-24 22:12 | 39.81706 | -6.82486 | 38001 ft | 447 kts | 27° |
| 2026-04-24 22:12 | 39.87231 | -6.78766 | 38000 ft | 447 kts | 27° |
| 2026-04-24 22:13 | 39.92721 | -6.75063 | 37999 ft | 447 kts | 27° |
| 2026-04-24 22:13 | 39.98237 | -6.71334 | 38001 ft | 447 kts | 27° |
| 2026-04-24 22:14 | 40.03750 | -6.67602 | 38003 ft | 446 kts | 27° |
| 2026-04-24 22:14 | 40.09253 | -6.63869 | 38000 ft | 446 kts | 27° |
| 2026-04-24 22:15 | 40.14762 | -6.60125 | 38001 ft | 446 kts | 27° |
| 2026-04-24 22:15 | 40.20263 | -6.56381 | 37999 ft | 446 kts | 27° |
| 2026-04-24 22:16 | 40.25762 | -6.52629 | 38003 ft | 446 kts | 27° |
| 2026-04-24 22:16 | 40.31268 | -6.48865 | 37998 ft | 446 kts | 27° |
| 2026-04-24 22:17 | 40.36775 | -6.45093 | 37994 ft | 447 kts | 27° |
| 2026-04-24 22:17 | 40.42295 | -6.41296 | 38011 ft | 449 kts | 27° |
| 2026-04-24 22:18 | 40.47829 | -6.37491 | 38005 ft | 450 kts | 27° |
| 2026-04-24 22:18 | 40.53392 | -6.33660 | 38000 ft | 452 kts | 27° |
| 2026-04-24 22:19 | 40.58959 | -6.29821 | 38005 ft | 453 kts | 27° |
| 2026-04-24 22:19 | 40.64503 | -6.26003 | 38002 ft | 454 kts | 27° |
| 2026-04-24 22:20 | 40.70143 | -6.22114 | 38001 ft | 454 kts | 27° |
| 2026-04-24 22:20 | 40.75691 | -6.18279 | 38000 ft | 453 kts | 27° |
| 2026-04-24 22:21 | 40.81278 | -6.14406 | 38001 ft | 453 kts | 27° |
| 2026-04-24 22:21 | 40.86843 | -6.10541 | 37999 ft | 452 kts | 27° |
| 2026-04-24 22:22 | 40.92402 | -6.06672 | 37998 ft | 451 kts | 27° |
| 2026-04-24 22:22 | 40.97944 | -6.02808 | 38002 ft | 450 kts | 27° |
| 2026-04-24 22:23 | 41.03467 | -5.98950 | 38000 ft | 449 kts | 27° |
| 2026-04-24 22:23 | 41.08994 | -5.95082 | 38002 ft | 448 kts | 27° |
| 2026-04-24 22:24 | 41.14504 | -5.91217 | 38001 ft | 448 kts | 27° |
| 2026-04-24 22:24 | 41.20003 | -5.87353 | 38001 ft | 448 kts | 27° |
| 2026-04-24 22:25 | 41.25510 | -5.83476 | 38003 ft | 448 kts | 27° |
| 2026-04-24 22:25 | 41.31018 | -5.79591 | 38004 ft | 448 kts | 27° |
| 2026-04-24 22:26 | 41.36527 | -5.75697 | 38001 ft | 449 kts | 27° |
| 2026-04-24 22:26 | 41.42043 | -5.71790 | 38002 ft | 449 kts | 27° |
| 2026-04-24 22:27 | 41.47559 | -5.67874 | 38003 ft | 450 kts | 27° |
| 2026-04-24 22:27 | 41.53088 | -5.63960 | 38000 ft | 450 kts | 26° |
| 2026-04-24 22:28 | 41.58812 | -5.60567 | 38004 ft | 450 kts | 22° |
| 2026-04-24 22:28 | 41.63619 | -5.57936 | 38000 ft | 450 kts | 22° |
| 2026-04-24 22:29 | 41.73241 | -5.52600 | 38001 ft | 450 kts | 22° |
| 2026-04-24 22:29 | 41.79007 | -5.49341 | 38001 ft | 450 kts | 22° |
| 2026-04-24 22:30 | 41.84772 | -5.46067 | 38001 ft | 450 kts | 22° |
| 2026-04-24 22:30 | 41.89599 | -5.43320 | 38000 ft | 450 kts | 22° |
| 2026-04-24 22:31 | 41.95294 | -5.40075 | 38001 ft | 449 kts | 22° |
| 2026-04-24 22:31 | 42.01042 | -5.36795 | 38000 ft | 449 kts | 22° |
| 2026-04-24 22:32 | 42.06793 | -5.33505 | 38001 ft | 449 kts | 22° |
| 2026-04-24 22:32 | 42.12541 | -5.30212 | 38001 ft | 449 kts | 22° |
| 2026-04-24 22:33 | 42.18291 | -5.26911 | 38002 ft | 449 kts | 22° |
| 2026-04-24 22:33 | 42.24040 | -5.23604 | 38001 ft | 449 kts | 22° |
| 2026-04-24 22:34 | 42.29785 | -5.20292 | 38001 ft | 449 kts | 22° |
| 2026-04-24 22:34 | 42.35531 | -5.16972 | 38002 ft | 449 kts | 22° |
| 2026-04-24 22:35 | 42.41282 | -5.13643 | 38001 ft | 449 kts | 22° |
| 2026-04-24 22:35 | 42.47031 | -5.10309 | 38002 ft | 450 kts | 22° |
| 2026-04-24 22:36 | 42.52783 | -5.06966 | 38002 ft | 450 kts | 23° |
| 2026-04-24 22:36 | 42.58538 | -5.03613 | 38002 ft | 450 kts | 23° |
| 2026-04-24 22:37 | 42.64291 | -5.00255 | 38000 ft | 451 kts | 22° |
| 2026-04-24 22:37 | 42.70054 | -4.96890 | 38003 ft | 451 kts | 22° |
| 2026-04-24 22:38 | 42.75819 | -4.93520 | 37999 ft | 451 kts | 23° |
| 2026-04-24 22:38 | 42.81590 | -4.90136 | 38001 ft | 452 kts | 23° |
| 2026-04-24 22:39 | 42.87368 | -4.86738 | 38003 ft | 452 kts | 23° |
| 2026-04-24 22:39 | 42.93146 | -4.83333 | 38006 ft | 453 kts | 23° |
| 2026-04-24 22:40 | 42.98949 | -4.79905 | 37996 ft | 455 kts | 23° |
| 2026-04-24 22:40 | 43.04763 | -4.76464 | 38009 ft | 456 kts | 23° |
| 2026-04-24 22:41 | 43.10586 | -4.73012 | 38016 ft | 456 kts | 23° |
| 2026-04-24 22:41 | 43.16366 | -4.69577 | 37993 ft | 453 kts | 23° |
| 2026-04-24 22:42 | 43.22107 | -4.66158 | 37986 ft | 449 kts | 23° |
| 2026-04-24 22:42 | 43.27838 | -4.62739 | 38016 ft | 449 kts | 23° |
| 2026-04-24 22:43 | 43.33563 | -4.59315 | 38008 ft | 449 kts | 23° |
| 2026-04-24 22:43 | 43.39284 | -4.55885 | 38005 ft | 448 kts | 23° |
| 2026-04-24 22:44 | 43.44990 | -4.52457 | 37997 ft | 447 kts | 23° |
| 2026-04-24 22:44 | 43.50683 | -4.49034 | 37999 ft | 446 kts | 23° |
| 2026-04-24 22:45 | 43.56364 | -4.45617 | 38000 ft | 444 kts | 23° |
| 2026-04-24 22:45 | 43.62021 | -4.42206 | 38000 ft | 443 kts | 23° |
| 2026-04-24 22:46 | 43.67663 | -4.38794 | 38001 ft | 442 kts | 23° |
| 2026-04-24 22:46 | 43.73296 | -4.35380 | 38001 ft | 442 kts | 23° |
| 2026-04-24 22:47 | 43.78924 | -4.31961 | 38002 ft | 441 kts | 23° |
| 2026-04-24 22:47 | 43.84548 | -4.28539 | 38002 ft | 442 kts | 23° |
| 2026-04-24 22:48 | 43.90172 | -4.25108 | 38002 ft | 442 kts | 23° |
| 2026-04-24 22:48 | 43.95806 | -4.21665 | 38002 ft | 443 kts | 23° |
| 2026-04-24 22:49 | 44.01449 | -4.18209 | 38002 ft | 443 kts | 23° |
| 2026-04-24 22:49 | 44.07095 | -4.14743 | 38002 ft | 444 kts | 23° |
| 2026-04-24 22:50 | 44.12756 | -4.11260 | 38002 ft | 445 kts | 23° |
| 2026-04-24 22:50 | 44.18423 | -4.07766 | 38002 ft | 446 kts | 23° |
| 2026-04-24 22:51 | 44.24094 | -4.04261 | 38002 ft | 446 kts | 23° |
| 2026-04-24 22:51 | 44.29766 | -4.00749 | 38001 ft | 446 kts | 23° |
| 2026-04-24 22:52 | 44.35180 | -3.96550 | 38002 ft | 446 kts | 37° |
| 2026-04-24 22:52 | 44.39250 | -3.92120 | 38001 ft | 446 kts | 38° |
| 2026-04-24 22:53 | 44.45257 | -3.85433 | 37999 ft | 446 kts | 38° |
| 2026-04-24 22:53 | 44.50127 | -3.80060 | 38001 ft | 446 kts | 38° |
| 2026-04-24 22:54 | 44.55006 | -3.74707 | 38000 ft | 446 kts | 38° |
| 2026-04-24 22:54 | 44.59068 | -3.70253 | 38001 ft | 445 kts | 38° |
| 2026-04-24 22:55 | 44.64767 | -3.63990 | 38001 ft | 445 kts | 38° |
| 2026-04-24 22:55 | 44.69636 | -3.58625 | 38001 ft | 445 kts | 38° |
| 2026-04-24 22:56 | 44.73677 | -3.54162 | 38001 ft | 445 kts | 38° |
| 2026-04-24 22:56 | 44.78540 | -3.48780 | 38001 ft | 444 kts | 38° |
| 2026-04-24 22:57 | 44.83394 | -3.43397 | 38001 ft | 444 kts | 38° |
| 2026-04-24 22:57 | 44.88251 | -3.37999 | 38002 ft | 444 kts | 38° |
| 2026-04-24 22:58 | 44.93098 | -3.32600 | 38002 ft | 444 kts | 38° |
| 2026-04-24 22:58 | 44.97942 | -3.27192 | 38002 ft | 444 kts | 38° |
| 2026-04-24 22:59 | 45.02760 | -3.21802 | 38002 ft | 444 kts | 38° |
| 2026-04-24 23:00 | 45.10026 | -3.13650 | 38002 ft | 445 kts | 38° |
| 2026-04-24 23:00 | 45.14868 | -3.08203 | 38002 ft | 445 kts | 38° |
| 2026-04-24 23:01 | 45.19709 | -3.02744 | 38002 ft | 445 kts | 38° |
| 2026-04-24 23:01 | 45.24552 | -2.97271 | 38002 ft | 445 kts | 38° |
| 2026-04-24 23:02 | 45.29394 | -2.91787 | 38002 ft | 445 kts | 38° |
| 2026-04-24 23:02 | 45.34230 | -2.86297 | 38002 ft | 445 kts | 38° |
| 2026-04-24 23:03 | 45.39072 | -2.80788 | 38002 ft | 445 kts | 38° |
| 2026-04-24 23:03 | 45.43903 | -2.75279 | 38002 ft | 445 kts | 38° |
| 2026-04-24 23:04 | 45.48737 | -2.69754 | 38002 ft | 445 kts | 38° |
| 2026-04-24 23:04 | 45.53557 | -2.64233 | 38001 ft | 445 kts | 38° |
| 2026-04-24 23:05 | 45.58391 | -2.58683 | 38001 ft | 445 kts | 38° |
| 2026-04-24 23:05 | 45.63220 | -2.53127 | 38001 ft | 445 kts | 38° |
| 2026-04-24 23:06 | 45.68006 | -2.47606 | 38001 ft | 445 kts | 38° |
| 2026-04-24 23:06 | 45.72841 | -2.42017 | 38001 ft | 445 kts | 38° |
| 2026-04-24 23:07 | 45.77636 | -2.36462 | 38001 ft | 445 kts | 39° |
| 2026-04-24 23:07 | 45.82427 | -2.30898 | 38001 ft | 445 kts | 39° |
| 2026-04-24 23:08 | 45.87243 | -2.25292 | 38001 ft | 445 kts | 39° |
| 2026-04-24 23:08 | 45.92054 | -2.19679 | 38001 ft | 445 kts | 39° |
| 2026-04-24 23:09 | 45.96842 | -2.14081 | 38001 ft | 445 kts | 39° |
| 2026-04-24 23:09 | 46.01636 | -2.08462 | 38001 ft | 445 kts | 39° |
| 2026-04-24 23:10 | 46.06431 | -2.02829 | 38001 ft | 445 kts | 39° |
| 2026-04-24 23:10 | 46.11221 | -1.97189 | 38001 ft | 445 kts | 39° |
| 2026-04-24 23:11 | 46.16018 | -1.91528 | 38001 ft | 445 kts | 39° |
| 2026-04-24 23:11 | 46.20804 | -1.85866 | 38001 ft | 445 kts | 39° |
| 2026-04-24 23:12 | 46.25585 | -1.80197 | 38001 ft | 445 kts | 39° |
| 2026-04-24 23:12 | 46.30363 | -1.74517 | 38001 ft | 445 kts | 39° |
| 2026-04-24 23:13 | 46.35139 | -1.68828 | 38001 ft | 445 kts | 39° |
| 2026-04-24 23:13 | 46.39909 | -1.63131 | 38001 ft | 445 kts | 39° |
| 2026-04-24 23:14 | 46.44688 | -1.57411 | 38001 ft | 445 kts | 39° |
| 2026-04-24 23:14 | 46.49458 | -1.51685 | 38000 ft | 445 kts | 39° |
| 2026-04-24 23:15 | 46.54221 | -1.45955 | 38002 ft | 445 kts | 39° |
| 2026-04-24 23:15 | 46.58998 | -1.40202 | 38006 ft | 445 kts | 40° |
| 2026-04-24 23:16 | 46.63338 | -1.33803 | 38006 ft | 445 kts | 48° |
| 2026-04-24 23:16 | 46.67452 | -1.27062 | 38003 ft | 445 kts | 48° |
| 2026-04-24 23:17 | 46.71572 | -1.20314 | 38001 ft | 446 kts | 48° |
| 2026-04-24 23:17 | 46.75713 | -1.13578 | 38002 ft | 446 kts | 48° |
| 2026-04-24 23:18 | 46.79834 | -1.06885 | 38000 ft | 446 kts | 48° |
| 2026-04-24 23:18 | 46.83979 | -1.00141 | 38001 ft | 446 kts | 48° |
| 2026-04-24 23:19 | 46.88148 | -0.93339 | 38001 ft | 446 kts | 48° |
| 2026-04-24 23:19 | 46.92285 | -0.86569 | 38003 ft | 447 kts | 48° |
| 2026-04-24 23:20 | 46.96424 | -0.79781 | 38001 ft | 447 kts | 48° |
| 2026-04-24 23:20 | 47.00526 | -0.73034 | 38001 ft | 447 kts | 48° |
| 2026-04-24 23:21 | 47.04653 | -0.66230 | 38001 ft | 447 kts | 48° |
| 2026-04-24 23:21 | 47.08778 | -0.59413 | 38000 ft | 447 kts | 48° |
| 2026-04-24 23:22 | 47.12898 | -0.52586 | 38003 ft | 447 kts | 48° |
| 2026-04-24 23:22 | 47.17022 | -0.45734 | 38014 ft | 450 kts | 48° |
| 2026-04-24 23:23 | 47.21209 | -0.38762 | 38012 ft | 458 kts | 48° |
| 2026-04-24 23:23 | 47.25513 | -0.31751 | 38006 ft | 465 kts | 45° |
| 2026-04-24 23:24 | 47.30097 | -0.25110 | 38007 ft | 469 kts | 44° |
| 2026-04-24 23:24 | 47.34867 | -0.18372 | 38004 ft | 473 kts | 44° |
| 2026-04-24 23:25 | 47.39610 | -0.11584 | 38000 ft | 475 kts | 44° |
| 2026-04-24 23:25 | 47.44335 | -0.04744 | 38001 ft | 476 kts | 44° |
| 2026-04-24 23:26 | 47.49061 | 0.02137 | 37997 ft | 475 kts | 44° |
| 2026-04-24 23:26 | 47.51388 | 0.05532 | 37980 ft | 464 kts | 44° |
| 2026-04-24 23:26 | 47.53646 | 0.08827 | 37980 ft | 449 kts | 44° |
| 2026-04-24 23:27 | 47.58022 | 0.15212 | 37996 ft | 439 kts | 44° |
| 2026-04-24 23:27 | 47.62362 | 0.21562 | 38011 ft | 438 kts | 44° |
| 2026-04-24 23:28 | 47.66677 | 0.27900 | 38006 ft | 438 kts | 44° |
| 2026-04-24 23:28 | 47.71024 | 0.34307 | 38003 ft | 439 kts | 44° |
| 2026-04-24 23:29 | 47.75357 | 0.40708 | 38003 ft | 439 kts | 44° |
| 2026-04-24 23:29 | 47.79655 | 0.47074 | 38002 ft | 440 kts | 44° |
| 2026-04-24 23:30 | 47.84013 | 0.53544 | 38003 ft | 441 kts | 44° |
| 2026-04-24 23:30 | 47.88333 | 0.59973 | 38002 ft | 441 kts | 44° |
| 2026-04-24 23:31 | 47.92675 | 0.66451 | 38001 ft | 442 kts | 44° |
| 2026-04-24 23:31 | 47.97022 | 0.72949 | 38002 ft | 442 kts | 44° |
| 2026-04-24 23:32 | 48.01364 | 0.79462 | 38002 ft | 443 kts | 45° |
| 2026-04-24 23:32 | 48.05706 | 0.85991 | 38001 ft | 443 kts | 45° |
| 2026-04-24 23:33 | 48.10049 | 0.92539 | 38000 ft | 443 kts | 45° |
| 2026-04-24 23:33 | 48.14360 | 0.99059 | 38002 ft | 443 kts | 45° |
| 2026-04-24 23:34 | 48.18707 | 1.05646 | 38001 ft | 443 kts | 45° |
| 2026-04-24 23:34 | 48.22953 | 1.12348 | 37999 ft | 442 kts | 49° |
| 2026-04-24 23:35 | 48.26861 | 1.19475 | 38002 ft | 442 kts | 51° |
| 2026-04-24 23:35 | 48.30711 | 1.26673 | 38001 ft | 442 kts | 51° |
| 2026-04-24 23:36 | 48.34576 | 1.33850 | 38001 ft | 442 kts | 50° |
| 2026-04-24 23:36 | 48.38451 | 1.41011 | 38001 ft | 441 kts | 50° |
| 2026-04-24 23:37 | 48.42321 | 1.48170 | 38001 ft | 441 kts | 50° |
| 2026-04-24 23:37 | 48.48121 | 1.58933 | 38001 ft | 441 kts | 51° |
| 2026-04-24 23:38 | 48.51962 | 1.66099 | 38001 ft | 440 kts | 51° |
| 2026-04-24 23:38 | 48.55805 | 1.73295 | 38000 ft | 441 kts | 51° |
| 2026-04-24 23:39 | 48.59614 | 1.80430 | 38002 ft | 441 kts | 51° |
| 2026-04-24 23:39 | 48.63460 | 1.87651 | 38001 ft | 441 kts | 51° |
| 2026-04-24 23:40 | 48.67288 | 1.94856 | 38001 ft | 441 kts | 51° |
| 2026-04-24 23:40 | 48.70975 | 2.01815 | 38002 ft | 441 kts | 51° |
| 2026-04-24 23:41 | 48.74678 | 2.09324 | 37991 ft | 441 kts | 60° |
| 2026-04-24 23:41 | 48.76930 | 2.17933 | 38015 ft | 440 kts | 75° |
| 2026-04-24 23:42 | 48.78469 | 2.26857 | 38005 ft | 441 kts | 75° |
| 2026-04-24 23:42 | 48.79768 | 2.34391 | 38002 ft | 441 kts | 75° |
| 2026-04-24 23:43 | 48.81352 | 2.43357 | 38002 ft | 441 kts | 75° |
| 2026-04-24 23:43 | 48.82954 | 2.52363 | 38000 ft | 442 kts | 75° |
| 2026-04-24 23:44 | 48.84807 | 2.62838 | 38002 ft | 442 kts | 75° |
| 2026-04-24 23:44 | 48.86135 | 2.70390 | 38002 ft | 442 kts | 75° |
| 2026-04-24 23:45 | 48.87667 | 2.79139 | 38000 ft | 442 kts | 75° |
| 2026-04-24 23:45 | 48.89236 | 2.88146 | 38003 ft | 442 kts | 75° |
| 2026-04-24 23:46 | 48.90801 | 2.97173 | 38000 ft | 442 kts | 75° |
| 2026-04-24 23:46 | 48.92338 | 3.06082 | 38002 ft | 442 kts | 75° |
| 2026-04-24 23:47 | 48.93889 | 3.15120 | 38001 ft | 441 kts | 75° |
| 2026-04-24 23:47 | 48.95425 | 3.24112 | 38000 ft | 441 kts | 75° |
| 2026-04-24 23:48 | 48.96966 | 3.33186 | 38002 ft | 441 kts | 75° |
| 2026-04-24 23:48 | 48.98489 | 3.42199 | 38001 ft | 441 kts | 75° |
| 2026-04-24 23:49 | 49.00014 | 3.51274 | 38000 ft | 441 kts | 76° |
| 2026-04-24 23:49 | 49.01525 | 3.60310 | 38004 ft | 441 kts | 76° |
| 2026-04-24 23:50 | 49.03017 | 3.69281 | 37999 ft | 441 kts | 76° |
| 2026-04-24 23:50 | 49.04515 | 3.78335 | 38003 ft | 441 kts | 76° |
| 2026-04-24 23:51 | 49.06010 | 3.87420 | 38002 ft | 441 kts | 76° |
| 2026-04-24 23:51 | 49.07498 | 3.96513 | 38001 ft | 441 kts | 76° |
| 2026-04-24 23:52 | 49.08975 | 4.05586 | 38000 ft | 441 kts | 76° |
| 2026-04-24 23:52 | 49.10447 | 4.14673 | 38001 ft | 441 kts | 76° |
| 2026-04-24 23:53 | 49.11912 | 4.23772 | 38003 ft | 441 kts | 76° |
| 2026-04-24 23:53 | 49.13359 | 4.32796 | 38000 ft | 441 kts | 76° |
| 2026-04-24 23:54 | 49.15263 | 4.41762 | 38009 ft | 440 kts | 68° |
| 2026-04-24 23:54 | 49.17650 | 4.50374 | 37998 ft | 441 kts | 66° |
| 2026-04-24 23:55 | 49.20049 | 4.58974 | 38001 ft | 441 kts | 67° |
| 2026-04-24 23:55 | 49.22414 | 4.67655 | 38002 ft | 441 kts | 67° |
| 2026-04-24 23:56 | 49.24742 | 4.76320 | 38001 ft | 441 kts | 68° |
| 2026-04-24 23:56 | 49.27045 | 4.84944 | 38001 ft | 441 kts | 68° |
| 2026-04-24 23:57 | 49.29360 | 4.93641 | 37999 ft | 441 kts | 68° |
| 2026-04-24 23:57 | 49.31668 | 5.02342 | 38002 ft | 441 kts | 68° |
| 2026-04-24 23:58 | 49.33971 | 5.11057 | 38001 ft | 441 kts | 68° |
| 2026-04-24 23:58 | 49.36268 | 5.19780 | 38003 ft | 441 kts | 68° |
| 2026-04-24 23:59 | 49.38560 | 5.28516 | 37998 ft | 441 kts | 68° |
| 2026-04-24 23:59 | 49.40844 | 5.37257 | 38005 ft | 441 kts | 68° |
| 2026-04-25 00:00 | 49.43122 | 5.46009 | 38000 ft | 442 kts | 68° |
| 2026-04-25 00:00 | 49.45389 | 5.54752 | 38001 ft | 442 kts | 68° |
| 2026-04-25 00:01 | 49.47668 | 5.63574 | 38016 ft | 447 kts | 68° |
| 2026-04-25 00:01 | 49.50013 | 5.72537 | 37999 ft | 452 kts | 63° |
| 2026-04-25 00:02 | 49.51643 | 5.76646 | 37997 ft | 446 kts | 51° |
| 2026-04-25 00:02 | 49.53682 | 5.80101 | 37978 ft | 430 kts | 41° |
| 2026-04-25 00:02 | 49.56019 | 5.82826 | 37992 ft | 414 kts | 32° |
| 2026-04-25 00:02 | 49.58436 | 5.85198 | 37988 ft | 408 kts | 32° |
| 2026-04-25 00:03 | 49.63159 | 5.89828 | 38002 ft | 404 kts | 32° |
| 2026-04-25 00:03 | 49.67901 | 5.94561 | 37695 ft | 399 kts | 33° |
| 2026-04-25 00:04 | 49.70180 | 5.96858 | 37203 ft | 397 kts | 33° |
| 2026-04-25 00:04 | 49.72538 | 5.99240 | 36679 ft | 399 kts | 33° |
| 2026-04-25 00:04 | 49.74843 | 6.01573 | 36232 ft | 398 kts | 33° |
| 2026-04-25 00:04 | 49.77175 | 6.03935 | 35674 ft | 401 kts | 33° |
| 2026-04-25 00:05 | 49.79485 | 6.06276 | 35011 ft | 404 kts | 33° |
| 2026-04-25 00:05 | 49.81878 | 6.08704 | 34325 ft | 405 kts | 33° |
| 2026-04-25 00:05 | 49.84259 | 6.10924 | 33651 ft | 405 kts | 25° |
| 2026-04-25 00:05 | 49.86892 | 6.12421 | 32996 ft | 405 kts | 14° |
| 2026-04-25 00:06 | 49.89672 | 6.13151 | 32317 ft | 404 kts | 2° |
| 2026-04-25 00:06 | 49.92480 | 6.13234 | 31665 ft | 403 kts | 359° |
| 2026-04-25 00:06 | 49.95272 | 6.13203 | 30995 ft | 403 kts | 359° |
| 2026-04-25 00:06 | 49.98082 | 6.13152 | 30324 ft | 403 kts | 359° |
| 2026-04-25 00:07 | 50.00897 | 6.13115 | 29650 ft | 402 kts | 359° |
| 2026-04-25 00:07 | 50.03677 | 6.13098 | 28986 ft | 401 kts | 359° |
| 2026-04-25 00:07 | 50.06474 | 6.13097 | 28308 ft | 399 kts | 360° |
| 2026-04-25 00:07 | 50.09227 | 6.13105 | 27884 ft | 391 kts | 360° |
| 2026-04-25 00:08 | 50.11915 | 6.13117 | 27452 ft | 383 kts | 360° |
| 2026-04-25 00:08 | 50.14552 | 6.13130 | 27053 ft | 373 kts | 360° |
| 2026-04-25 00:08 | 50.17112 | 6.13142 | 26684 ft | 368 kts | 360° |
| 2026-04-25 00:08 | 50.19655 | 6.13154 | 26320 ft | 365 kts | 360° |
| 2026-04-25 00:09 | 50.22208 | 6.13165 | 25962 ft | 363 kts | 360° |
| 2026-04-25 00:09 | 50.24718 | 6.13176 | 25607 ft | 360 kts | 360° |
| 2026-04-25 00:09 | 50.27219 | 6.13208 | 25252 ft | 358 kts | 3° |
| 2026-04-25 00:09 | 50.29662 | 6.13857 | 24901 ft | 355 kts | 16° |
| 2026-04-25 00:10 | 50.31937 | 6.15250 | 24695 ft | 348 kts | 28° |
| 2026-04-25 00:10 | 50.34000 | 6.17208 | 24380 ft | 345 kts | 32° |
| 2026-04-25 00:10 | 50.35991 | 6.19292 | 24032 ft | 343 kts | 34° |
| 2026-04-25 00:10 | 50.37962 | 6.21389 | 23684 ft | 342 kts | 34° |
| 2026-04-25 00:11 | 50.39925 | 6.23463 | 23338 ft | 340 kts | 33° |
| 2026-04-25 00:11 | 50.41887 | 6.25515 | 22991 ft | 338 kts | 33° |
| 2026-04-25 00:11 | 50.43845 | 6.27547 | 22647 ft | 337 kts | 33° |
| 2026-04-25 00:11 | 50.45785 | 6.29548 | 22302 ft | 335 kts | 33° |
| 2026-04-25 00:12 | 50.47737 | 6.31564 | 21955 ft | 333 kts | 33° |
| 2026-04-25 00:12 | 50.49667 | 6.33554 | 21626 ft | 332 kts | 32° |
| 2026-04-25 00:12 | 50.51633 | 6.35437 | 21274 ft | 330 kts | 30° |
| 2026-04-25 00:12 | 50.53614 | 6.37245 | 20938 ft | 328 kts | 29° |
| 2026-04-25 00:13 | 50.55590 | 6.39029 | 20596 ft | 327 kts | 29° |
| 2026-04-25 00:13 | 50.57549 | 6.40803 | 20258 ft | 325 kts | 29° |
| 2026-04-25 00:13 | 50.59512 | 6.42593 | 19922 ft | 324 kts | 30° |
| 2026-04-25 00:13 | 50.61455 | 6.44372 | 19586 ft | 322 kts | 30° |
| 2026-04-25 00:14 | 50.63383 | 6.46146 | 19256 ft | 321 kts | 30° |
| 2026-04-25 00:14 | 50.65307 | 6.47919 | 18925 ft | 319 kts | 30° |
| 2026-04-25 00:14 | 50.67217 | 6.49689 | 18592 ft | 318 kts | 30° |
| 2026-04-25 00:14 | 50.69118 | 6.51453 | 18256 ft | 316 kts | 30° |
| 2026-04-25 00:15 | 50.70992 | 6.53191 | 17942 ft | 315 kts | 30° |
| 2026-04-25 00:15 | 50.72882 | 6.54943 | 17612 ft | 313 kts | 30° |
| 2026-04-25 00:15 | 50.74765 | 6.56691 | 17276 ft | 312 kts | 30° |
| 2026-04-25 00:15 | 50.76633 | 6.58425 | 16948 ft | 310 kts | 30° |
| 2026-04-25 00:16 | 50.78492 | 6.60152 | 16633 ft | 309 kts | 30° |
| 2026-04-25 00:16 | 50.80338 | 6.61869 | 16310 ft | 308 kts | 30° |
| 2026-04-25 00:16 | 50.82154 | 6.63556 | 15991 ft | 306 kts | 30° |
| 2026-04-25 00:16 | 50.84041 | 6.65112 | 15666 ft | 305 kts | 25° |
| 2026-04-25 00:17 | 50.85952 | 6.66525 | 15356 ft | 303 kts | 24° |
| 2026-04-25 00:17 | 50.87866 | 6.67914 | 15048 ft | 301 kts | 24° |
| 2026-04-25 00:17 | 50.89751 | 6.69291 | 14730 ft | 300 kts | 24° |
| 2026-04-25 00:17 | 50.91651 | 6.70693 | 14413 ft | 298 kts | 25° |
| 2026-04-25 00:18 | 50.93523 | 6.72085 | 14100 ft | 297 kts | 25° |
| 2026-04-25 00:18 | 50.95381 | 6.73473 | 13788 ft | 296 kts | 25° |
| 2026-04-25 00:18 | 50.97237 | 6.74864 | 13485 ft | 294 kts | 25° |
| 2026-04-25 00:18 | 50.99081 | 6.76248 | 13183 ft | 292 kts | 25° |
| 2026-04-25 00:19 | 51.00862 | 6.77761 | 12864 ft | 291 kts | 38° |
| 2026-04-25 00:19 | 51.02127 | 6.80223 | 12597 ft | 288 kts | 65° |
| 2026-04-25 00:19 | 51.02569 | 6.83274 | 12378 ft | 283 kts | 90° |
| 2026-04-25 00:19 | 51.02218 | 6.86295 | 12098 ft | 280 kts | 113° |
| 2026-04-25 00:20 | 51.01354 | 6.89074 | 11824 ft | 278 kts | 118° |
| 2026-04-25 00:20 | 51.00450 | 6.91792 | 11513 ft | 278 kts | 118° |
| 2026-04-25 00:20 | 50.99553 | 6.94503 | 11208 ft | 278 kts | 117° |
| 2026-04-25 00:20 | 50.98659 | 6.97228 | 10899 ft | 278 kts | 117° |
| 2026-04-25 00:21 | 50.97775 | 6.99940 | 10641 ft | 275 kts | 117° |
| 2026-04-25 00:21 | 50.96903 | 7.02635 | 10357 ft | 274 kts | 117° |
| 2026-04-25 00:21 | 50.96035 | 7.05317 | 10116 ft | 271 kts | 117° |
| 2026-04-25 00:21 | 50.95184 | 7.07948 | 9963 ft | 265 kts | 117° |
| 2026-04-25 00:22 | 50.94340 | 7.10553 | 9673 ft | 265 kts | 117° |
| 2026-04-25 00:22 | 50.93499 | 7.13146 | 9399 ft | 264 kts | 117° |
| 2026-04-25 00:22 | 50.92659 | 7.15733 | 9120 ft | 264 kts | 117° |
| 2026-04-25 00:22 | 50.91834 | 7.18274 | 8829 ft | 263 kts | 117° |
| 2026-04-25 00:23 | 50.90982 | 7.20892 | 8544 ft | 263 kts | 117° |
| 2026-04-25 00:23 | 50.90143 | 7.23471 | 8261 ft | 263 kts | 117° |
| 2026-04-25 00:23 | 50.89305 | 7.26041 | 7979 ft | 263 kts | 117° |
| 2026-04-25 00:23 | 50.88467 | 7.28611 | 7685 ft | 262 kts | 117° |
| 2026-04-25 00:24 | 50.87655 | 7.31097 | 7418 ft | 261 kts | 117° |
| 2026-04-25 00:24 | 50.86801 | 7.33712 | 7145 ft | 260 kts | 117° |
| 2026-04-25 00:24 | 50.85979 | 7.36225 | 6898 ft | 259 kts | 117° |
| 2026-04-25 00:24 | 50.85156 | 7.38738 | 6630 ft | 258 kts | 117° |
| 2026-04-25 00:25 | 50.84335 | 7.41245 | 6367 ft | 256 kts | 117° |
| 2026-04-25 00:25 | 50.83511 | 7.43755 | 6091 ft | 255 kts | 117° |
| 2026-04-25 00:25 | 50.82683 | 7.46275 | 5828 ft | 255 kts | 117° |
| 2026-04-25 00:25 | 50.81881 | 7.48713 | 5584 ft | 250 kts | 117° |
| 2026-04-25 00:26 | 50.81044 | 7.51023 | 5337 ft | 236 kts | 130° |
| 2026-04-25 00:26 | 50.79768 | 7.52453 | 5203 ft | 218 kts | 162° |
| 2026-04-25 00:26 | 50.78291 | 7.52726 | 4976 ft | 215 kts | 188° |
| 2026-04-25 00:26 | 50.76920 | 7.51954 | 4838 ft | 205 kts | 213° |
| 2026-04-25 00:27 | 50.75903 | 7.50499 | 4720 ft | 193 kts | 234° |
| 2026-04-25 00:27 | 50.75205 | 7.48701 | 4653 ft | 192 kts | 241° |
| 2026-04-25 00:27 | 50.74564 | 7.46846 | 4552 ft | 194 kts | 242° |
| 2026-04-25 00:27 | 50.73917 | 7.44956 | 4350 ft | 195 kts | 242° |
| 2026-04-25 00:28 | 50.73277 | 7.43091 | 4164 ft | 192 kts | 242° |
| 2026-04-25 00:28 | 50.72661 | 7.41236 | 3944 ft | 189 kts | 249° |
| 2026-04-25 00:28 | 50.72617 | 7.39242 | 3721 ft | 181 kts | 291° |
| 2026-04-25 00:28 | 50.73012 | 7.38111 | 3616 ft | 175 kts | 302° |
| 2026-04-25 00:29 | 50.73197 | 7.35769 | 3407 ft | 163 kts | 255° |
| 2026-04-25 00:29 | 50.73052 | 7.33957 | 3169 ft | 171 kts | 283° |
| 2026-04-25 00:29 | 50.73427 | 7.32900 | 3064 ft | 167 kts | 320° |
| 2026-04-25 00:29 | 50.74449 | 7.32087 | 2949 ft | 165 kts | 332° |
| 2026-04-25 00:30 | 50.75387 | 7.31024 | 2848 ft | 167 kts | 322° |
| 2026-04-25 00:30 | 50.76304 | 7.29885 | 2744 ft | 168 kts | 319° |
| 2026-04-25 00:30 | 50.77162 | 7.28708 | 2516 ft | 160 kts | 317° |
| 2026-04-25 00:30 | 50.77966 | 7.27552 | 2311 ft | 152 kts | 315° |
| 2026-04-25 00:31 | 50.78740 | 7.26432 | 2122 ft | 150 kts | 317° |
| 2026-04-25 00:31 | 50.79513 | 7.25309 | 1925 ft | 152 kts | 316° |
| 2026-04-25 00:31 | 50.80284 | 7.24182 | 1723 ft | 151 kts | 316° |
| 2026-04-25 00:31 | 50.81056 | 7.23057 | 1521 ft | 151 kts | 317° |
| 2026-04-25 00:32 | 50.81826 | 7.21936 | 1321 ft | 150 kts | 315° |
| 2026-04-25 00:32 | 50.82592 | 7.20815 | 1113 ft | 149 kts | 315° |
| 2026-04-25 00:32 | 50.83358 | 7.19709 | 946 ft | 149 kts | 315° |
| 2026-04-25 00:32 | 50.84112 | 7.18580 | 738 ft | 149 kts | 316° |
| 2026-04-25 00:33 | 50.84883 | 7.17484 | 534 ft | 149 kts | 314° |
| 2026-04-25 00:33 | 50.85646 | 7.16372 | 334 ft | 148 kts | 314° |
| 2026-04-25 00:33 | 50.86357 | 7.15311 | 278 ft | 124 kts | 319° |
| 2026-04-25 00:33 | 50.86849 | 7.14645 | 269 ft | 63 kts | 316° |
| 2026-04-25 00:34 | 50.87119 | 7.14253 | 271 ft | 44 kts | 317° |
| 2026-04-25 00:34 | 50.87283 | 7.13938 | 263 ft | 31 kts | 294° |
| 2026-04-25 00:34 | 50.87317 | 7.13738 | 258 ft | 0 kts | 279° |
| 2026-04-25 00:36 | 50.87317 | 7.13737 | 258 ft | 1 kts | 279° |
| 2026-04-25 00:37 | 50.87323 | 7.13679 | 257 ft | 11 kts | 280° |
| 2026-04-25 00:37 | 50.87339 | 7.13527 | 255 ft | 19 kts | 278° |
| 2026-04-25 00:37 | 50.87370 | 7.13292 | 246 ft | 23 kts | 295° |
| 2026-04-25 00:37 | 50.87467 | 7.13135 | 245 ft | 17 kts | 319° |
| 2026-04-25 00:38 | 50.87545 | 7.13023 | 244 ft | 14 kts | 319° |
| 2026-04-25 00:38 | 50.87604 | 7.12935 | 243 ft | 7 kts | 305° |
| 2026-04-25 00:38 | 50.87595 | 7.12858 | 240 ft | 6 kts | 231° |
| 2026-04-25 00:38 | 50.87587 | 7.12845 | 240 ft | 3 kts | 224° |
| 2026-04-25 00:39 | 50.87574 | 7.12825 | 239 ft | 0 kts | 227° |
| 2026-04-25 00:39 | 50.87573 | 7.12822 | 239 ft | 0 kts | 227° |